Time;durP1;ratioP1;P1;durP2;ratioP2;P2;SDS_P1;SDS_P2;PMS_P1;PMS_P2;Temp;Humidity;BMP_temperature;BMP_pressure;BME280_temperature;BME280_humidity;BME280_pressure;Samples;Min_cycle;Max_cycle;Signal;HPM_P1;HPM_P2
2023/10/23 00:00:43;;;;;;;55.87;2.23;;;;;;;;;;5052506;28;20492;-72
2023/10/23 00:03:10;;;;;;;56.33;2.43;;;;;;;;;;5052610;28;20463;-72
2023/10/23 00:05:37;;;;;;;56.60;2.70;;;;;;;;;;5051828;28;20454;-72
2023/10/23 00:08:05;;;;;;;56.70;2.43;;;;;;;;;;5052175;28;20534;-72
2023/10/23 00:10:33;;;;;;;56.40;2.37;;;;;;;;;;5052153;28;20494;-72
2023/10/23 00:13:00;;;;;;;56.23;2.40;;;;;;;;;;5052276;28;20453;-71
2023/10/23 00:15:27;;;;;;;56.37;2.17;;;;;;;;;;5052532;28;20544;-72
2023/10/23 00:17:54;;;;;;;55.83;2.10;;;;;;;;;;5049056;28;20840;-72
2023/10/23 00:20:22;;;;;;;56.63;2.53;;;;;;;;;;5050180;28;20507;-72
2023/10/23 00:22:49;;;;;;;56.07;2.30;;;;;;;;;;5052227;28;20813;-72
2023/10/23 00:25:16;;;;;;;55.40;2.30;;;;;;;;;;5052033;28;20449;-72
2023/10/23 00:27:44;;;;;;;56.20;2.40;;;;;;;;;;5052439;28;20797;-72
2023/10/23 00:30:12;;;;;;;58.27;2.80;;;;;;;;;;5052045;28;20475;-71
2023/10/23 00:32:39;;;;;;;56.07;2.43;;;;;;;;;;5052125;28;20444;-71
2023/10/23 00:35:06;;;;;;;56.70;3.23;;;;;;;;;;5051700;28;20449;-72
2023/10/23 00:37:34;;;;;;;55.67;2.23;;;;;;;;;;5051635;28;20448;-72
2023/10/23 00:40:01;;;;;;;56.37;2.40;;;;;;;;;;5051944;28;20757;-72
2023/10/23 00:42:28;;;;;;;56.60;2.40;;;;;;;;;;5051962;28;20446;-72
2023/10/23 00:44:56;;;;;;;56.80;3.00;;;;;;;;;;5051716;28;20444;-72
2023/10/23 00:47:24;;;;;;;56.27;2.50;;;;;;;;;;5051844;28;20467;-72
2023/10/23 00:49:51;;;;;;;55.60;2.40;;;;;;;;;;5051601;28;20461;-71
2023/10/23 00:52:18;;;;;;;56.97;2.60;;;;;;;;;;5051668;28;20451;-72
2023/10/23 00:54:46;;;;;;;56.70;3.67;;;;;;;;;;5051529;28;20932;-72
2023/10/23 00:57:13;;;;;;;56.17;2.60;;;;;;;;;;5050901;28;20460;-72
2023/10/23 00:59:41;;;;;;;56.43;2.23;;;;;;;;;;5047986;28;20466;-72
2023/10/23 01:02:10;;;;;;;56.10;2.53;;;;;;;;;;5051335;28;20483;-72
2023/10/23 01:04:37;;;;;;;56.50;2.70;;;;;;;;;;5051135;28;20443;-72
2023/10/23 01:07:04;;;;;;;56.07;2.20;;;;;;;;;;5051690;28;20456;-72
2023/10/23 01:09:31;;;;;;;56.23;2.40;;;;;;;;;;5051164;28;20647;-72
2023/10/23 01:11:58;;;;;;;55.67;2.40;;;;;;;;;;5051397;28;20655;-72
2023/10/23 01:14:25;;;;;;;56.27;2.13;;;;;;;;;;5051010;28;20445;-71
2023/10/23 01:16:52;;;;;;;55.50;2.40;;;;;;;;;;5050889;28;20461;-72
2023/10/23 01:19:22;;;;;;;56.40;2.50;;;;;;;;;;5050998;28;20463;-72
2023/10/23 01:21:49;;;;;;;56.97;2.50;;;;;;;;;;5051279;28;20483;-72
2023/10/23 01:24:18;;;;;;;56.77;2.30;;;;;;;;;;5051092;28;20449;-72
2023/10/23 01:26:46;;;;;;;56.00;2.47;;;;;;;;;;5050490;28;20445;-72
2023/10/23 01:29:13;;;;;;;56.37;2.60;;;;;;;;;;5050831;28;20495;-72
2023/10/23 01:31:40;;;;;;;56.40;2.17;;;;;;;;;;5051128;28;20458;-72
2023/10/23 01:34:07;;;;;;;59.00;2.43;;;;;;;;;;5051068;28;20459;-72
2023/10/23 01:36:35;;;;;;;55.60;2.50;;;;;;;;;;5050955;28;20890;-72
2023/10/23 01:39:02;;;;;;;56.27;2.50;;;;;;;;;;5051304;28;20514;-72
2023/10/23 01:41:29;;;;;;;55.93;2.20;;;;;;;;;;5050578;28;20487;-72
2023/10/23 01:43:58;;;;;;;56.70;2.30;;;;;;;;;;5050748;28;20444;-71
2023/10/23 01:46:25;;;;;;;56.47;2.43;;;;;;;;;;5050863;28;20444;-72
2023/10/23 01:48:52;;;;;;;55.97;2.70;;;;;;;;;;5051057;28;20482;-72
2023/10/23 01:51:19;;;;;;;55.77;2.27;;;;;;;;;;5050732;28;20927;-72
2023/10/23 01:53:46;;;;;;;56.50;2.30;;;;;;;;;;5050716;28;20448;-72
2023/10/23 01:56:13;;;;;;;56.40;2.40;;;;;;;;;;5050594;28;20456;-72
2023/10/23 01:58:40;;;;;;;56.53;2.30;;;;;;;;;;5042402;28;20452;-72
2023/10/23 02:01:19;;;;;;;55.77;2.60;;;;;;;;;;5050614;28;20662;-72
2023/10/23 02:03:46;;;;;;;56.53;2.33;;;;;;;;;;5050523;28;20452;-72
2023/10/23 02:06:13;;;;;;;56.30;2.30;;;;;;;;;;5050694;28;20828;-72
2023/10/23 02:08:40;;;;;;;56.17;2.50;;;;;;;;;;5050472;28;20443;-72
2023/10/23 02:11:08;;;;;;;56.30;2.50;;;;;;;;;;5051120;28;20441;-72
2023/10/23 02:13:35;;;;;;;56.27;2.60;;;;;;;;;;5050353;28;20963;-72
2023/10/23 02:16:02;;;;;;;55.87;2.70;;;;;;;;;;5050659;28;20444;-72
2023/10/23 02:18:31;;;;;;;56.20;2.50;;;;;;;;;;5050563;28;20451;-71
2023/10/23 02:20:58;;;;;;;56.27;2.43;;;;;;;;;;5049978;28;20506;-71
2023/10/23 02:23:25;;;;;;;56.37;2.70;;;;;;;;;;5050126;28;20448;-72
2023/10/23 02:25:52;;;;;;;55.87;2.30;;;;;;;;;;5050249;28;20452;-71
2023/10/23 02:28:19;;;;;;;56.60;2.80;;;;;;;;;;5050411;28;20840;-71
2023/10/23 02:30:46;;;;;;;55.97;2.30;;;;;;;;;;5053146;28;20466;-72
2023/10/23 02:33:13;;;;;;;56.47;2.60;;;;;;;;;;5054128;28;20449;-71
2023/10/23 02:35:42;;;;;;;56.73;3.90;;;;;;;;;;5053915;28;20448;-72
2023/10/23 02:38:09;;;;;;;55.60;2.10;;;;;;;;;;5054142;28;20945;-71
2023/10/23 02:40:36;;;;;;;55.87;2.37;;;;;;;;;;5053983;28;20492;-72
2023/10/23 02:43:03;;;;;;;56.20;2.73;;;;;;;;;;5054198;28;20445;-71
2023/10/23 02:45:30;;;;;;;56.47;2.53;;;;;;;;;;5053919;28;20820;-72
2023/10/23 02:47:57;;;;;;;56.60;2.50;;;;;;;;;;5054063;28;20448;-71
2023/10/23 02:50:24;;;;;;;56.27;2.80;;;;;;;;;;5053732;28;20483;-71
2023/10/23 02:52:53;;;;;;;56.47;2.43;;;;;;;;;;5054031;28;20445;-71
2023/10/23 02:55:20;;;;;;;56.27;2.30;;;;;;;;;;5053745;28;20452;-72
2023/10/23 02:57:47;;;;;;;56.17;2.20;;;;;;;;;;5053898;28;20448;-72
2023/10/23 03:00:14;;;;;;;55.87;2.20;;;;;;;;;;5053442;28;20464;-71
2023/10/23 03:02:43;;;;;;;56.47;2.58;;;;;;;;;;5053390;28;20484;-72
2023/10/23 03:05:11;;;;;;;56.40;2.30;;;;;;;;;;5053710;28;20232;-71
2023/10/23 03:07:38;;;;;;;56.60;2.60;;;;;;;;;;5053649;28;20455;-71
2023/10/23 03:10:07;;;;;;;56.27;2.40;;;;;;;;;;5053502;28;20471;-72
2023/10/23 03:12:35;;;;;;;56.70;2.47;;;;;;;;;;5053667;28;20443;-71
2023/10/23 03:15:03;;;;;;;56.13;2.27;;;;;;;;;;5053357;28;20502;-72
2023/10/23 03:17:31;;;;;;;55.77;2.60;;;;;;;;;;5053243;28;20448;-72
2023/10/23 03:19:58;;;;;;;56.47;2.60;;;;;;;;;;5053388;28;20465;-71
2023/10/23 03:22:25;;;;;;;56.03;2.20;;;;;;;;;;5053435;28;20850;-71
2023/10/23 03:24:52;;;;;;;56.37;2.70;;;;;;;;;;5053395;28;20455;-71
2023/10/23 03:27:21;;;;;;;56.07;2.50;;;;;;;;;;5053270;28;20955;-71
2023/10/23 03:29:48;;;;;;;56.90;2.73;;;;;;;;;;5053063;28;20879;-72
2023/10/23 03:32:15;;;;;;;56.30;2.50;;;;;;;;;;5053272;28;20448;-71
2023/10/23 03:34:42;;;;;;;56.30;2.50;;;;;;;;;;5053189;28;20444;-71
2023/10/23 03:37:09;;;;;;;57.00;2.97;;;;;;;;;;5053269;28;20884;-71
2023/10/23 03:39:36;;;;;;;56.80;2.30;;;;;;;;;;5052786;28;20474;-71
2023/10/23 03:42:04;;;;;;;55.77;2.30;;;;;;;;;;5052686;28;20507;-71
2023/10/23 03:44:32;;;;;;;56.50;2.40;;;;;;;;;;5052824;28;20488;-72
2023/10/23 03:46:59;;;;;;;56.43;3.40;;;;;;;;;;5053291;28;20449;-72
2023/10/23 03:49:26;;;;;;;56.20;2.70;;;;;;;;;;5053039;28;20467;-71
2023/10/23 03:51:53;;;;;;;57.20;2.90;;;;;;;;;;5052819;28;20447;-71
2023/10/23 03:54:20;;;;;;;57.67;4.10;;;;;;;;;;5052726;28;20577;-71
2023/10/23 03:56:47;;;;;;;57.10;3.17;;;;;;;;;;5052708;28;20539;-72
2023/10/23 03:59:15;;;;;;;56.07;2.47;;;;;;;;;;5053009;28;20257;-71
2023/10/23 04:01:43;;;;;;;56.35;2.78;;;;;;;;;;5052448;28;20496;-72
2023/10/23 04:04:10;;;;;;;56.80;2.60;;;;;;;;;;5052608;28;20922;-71
2023/10/23 04:06:39;;;;;;;56.50;3.10;;;;;;;;;;5052595;28;20206;-71
2023/10/23 04:09:06;;;;;;;56.17;2.53;;;;;;;;;;5052600;28;20514;-72
2023/10/23 04:11:33;;;;;;;56.97;3.75;;;;;;;;;;5052567;28;20824;-71
2023/10/23 04:14:01;;;;;;;56.60;2.60;;;;;;;;;;5052562;28;20229;-71
2023/10/23 04:16:28;;;;;;;56.67;2.47;;;;;;;;;;5052590;28;20449;-72
2023/10/23 04:18:56;;;;;;;56.90;2.83;;;;;;;;;;5052537;28;20476;-72
2023/10/23 04:21:24;;;;;;;56.30;2.60;;;;;;;;;;5052388;28;20229;-71
2023/10/23 04:23:51;;;;;;;56.15;2.58;;;;;;;;;;5051819;28;20456;-72
2023/10/23 04:26:18;;;;;;;56.60;2.60;;;;;;;;;;5052277;28;20228;-71
2023/10/23 04:28:45;;;;;;;55.67;2.40;;;;;;;;;;5052340;28;20444;-71
2023/10/23 04:31:12;;;;;;;55.80;2.60;;;;;;;;;;5052375;28;20445;-71
2023/10/23 04:33:39;;;;;;;56.40;2.80;;;;;;;;;;5052254;28;20208;-71
2023/10/23 04:36:07;;;;;;;56.40;2.60;;;;;;;;;;5052275;28;20452;-71
2023/10/23 04:38:34;;;;;;;56.50;2.67;;;;;;;;;;5051759;28;20451;-71
2023/10/23 04:41:02;;;;;;;56.27;2.70;;;;;;;;;;5052195;28;20455;-71
2023/10/23 04:43:29;;;;;;;56.37;3.10;;;;;;;;;;5052022;28;20464;-71
2023/10/23 04:45:57;;;;;;;55.63;2.50;;;;;;;;;;5052151;28;20452;-71
2023/10/23 04:48:25;;;;;;;56.27;2.60;;;;;;;;;;5051921;28;20446;-71
2023/10/23 04:50:52;;;;;;;56.50;2.77;;;;;;;;;;5051722;28;20533;-72
2023/10/23 04:53:20;;;;;;;56.60;2.80;;;;;;;;;;5050938;28;20937;-71
2023/10/23 04:55:47;;;;;;;56.28;2.58;;;;;;;;;;5051812;28;20444;-71
2023/10/23 04:58:14;;;;;;;56.27;2.70;;;;;;;;;;5051828;28;20202;-71
2023/10/23 05:00:41;;;;;;;56.17;2.80;;;;;;;;;;5050692;28;20498;-72
2023/10/23 05:03:09;;;;;;;58.67;4.83;;;;;;;;;;5051264;28;20222;-71
2023/10/23 05:05:36;;;;;;;56.50;2.50;;;;;;;;;;5051178;28;20448;-71
2023/10/23 05:08:04;;;;;;;56.03;2.53;;;;;;;;;;5051571;28;20459;-71
2023/10/23 05:10:33;;;;;;;56.33;2.70;;;;;;;;;;5051384;28;20533;-71
2023/10/23 05:13:02;;;;;;;56.27;2.50;;;;;;;;;;5051321;28;20273;-70
2023/10/23 05:15:30;;;;;;;56.90;2.78;;;;;;;;;;5051494;28;20448;-72
2023/10/23 05:17:57;;;;;;;56.42;2.33;;;;;;;;;;5051239;28;20206;-72
2023/10/23 05:20:24;;;;;;;56.05;2.60;;;;;;;;;;5051117;28;20592;-72
2023/10/23 05:22:51;;;;;;;56.20;2.70;;;;;;;;;;5050728;28;20244;-72
2023/10/23 05:25:18;;;;;;;56.38;2.38;;;;;;;;;;5051202;28;20840;-72
2023/10/23 05:27:47;;;;;;;56.17;2.90;;;;;;;;;;5051213;28;20210;-72
2023/10/23 05:30:14;;;;;;;56.08;2.50;;;;;;;;;;5050971;28;20617;-72
2023/10/23 05:32:41;;;;;;;56.63;3.00;;;;;;;;;;5050880;28;20202;-72
2023/10/23 05:35:08;;;;;;;56.60;2.50;;;;;;;;;;5050786;28;20212;-72
2023/10/23 05:37:36;;;;;;;56.40;2.80;;;;;;;;;;5050868;28;20217;-72
2023/10/23 05:40:04;;;;;;;56.60;2.40;;;;;;;;;;5050857;28;20560;-74
2023/10/23 05:42:31;;;;;;;60.92;2.85;;;;;;;;;;5050474;28;20222;-71
2023/10/23 05:45:02;;;;;;;56.47;2.50;;;;;;;;;;5050710;28;20206;-72
2023/10/23 05:47:29;;;;;;;56.47;2.80;;;;;;;;;;5051242;28;20463;-70
2023/10/23 05:49:56;;;;;;;57.27;3.57;;;;;;;;;;5050394;28;20827;-71
2023/10/23 05:52:24;;;;;;;56.30;3.03;;;;;;;;;;5050900;28;20451;-72
2023/10/23 05:54:51;;;;;;;55.57;2.50;;;;;;;;;;5050476;28;20449;-72
2023/10/23 05:57:18;;;;;;;56.37;2.30;;;;;;;;;;5050673;28;20454;-72
2023/10/23 05:59:45;;;;;;;56.60;2.25;;;;;;;;;;5050874;28;20499;-72
2023/10/23 06:02:13;;;;;;;57.03;2.80;;;;;;;;;;5050652;28;20230;-72
2023/10/23 06:04:44;;;;;;;56.30;2.30;;;;;;;;;;5053314;28;20458;-72
2023/10/23 06:07:11;;;;;;;56.17;2.45;;;;;;;;;;5054941;28;20450;-72
2023/10/23 06:09:39;;;;;;;56.38;2.80;;;;;;;;;;5054583;28;20279;-72
2023/10/23 06:12:06;;;;;;;56.17;2.80;;;;;;;;;;5054739;28;20198;-72
2023/10/23 06:14:33;;;;;;;56.70;2.80;;;;;;;;;;5054484;28;20654;-72
2023/10/23 06:17:00;;;;;;;56.30;2.50;;;;;;;;;;5054915;28;20456;-72
2023/10/23 06:19:31;;;;;;;56.88;3.10;;;;;;;;;;5054787;28;20510;-72
2023/10/23 06:21:59;;;;;;;56.60;2.70;;;;;;;;;;5054549;28;20912;-72
2023/10/23 06:24:26;;;;;;;56.17;2.90;;;;;;;;;;5054252;28;20444;-72
2023/10/23 06:26:53;;;;;;;56.27;3.00;;;;;;;;;;5054359;28;20757;-71
2023/10/23 06:29:20;;;;;;;56.23;2.90;;;;;;;;;;5054545;28;20470;-72
2023/10/23 06:31:47;;;;;;;55.70;2.50;;;;;;;;;;5054187;28;20444;-72
2023/10/23 06:34:14;;;;;;;56.47;2.67;;;;;;;;;;5054174;28;20199;-72
2023/10/23 06:36:43;;;;;;;56.20;2.70;;;;;;;;;;5054241;28;20453;-72
2023/10/23 06:39:12;;;;;;;56.50;2.60;;;;;;;;;;5054199;28;20502;-72
2023/10/23 06:41:39;;;;;;;56.60;3.33;;;;;;;;;;5054009;28;20466;-73
2023/10/23 06:44:06;;;;;;;56.25;2.47;;;;;;;;;;5054273;28;20448;-72
2023/10/23 06:46:34;;;;;;;56.17;2.70;;;;;;;;;;5054252;28;20213;-72
2023/10/23 06:49:01;;;;;;;56.60;2.70;;;;;;;;;;5054129;28;20836;-73
2023/10/23 06:51:28;;;;;;;56.17;2.80;;;;;;;;;;5054178;28;20464;-72
2023/10/23 06:53:56;;;;;;;56.23;2.43;;;;;;;;;;5053839;28;20459;-74
2023/10/23 06:56:24;;;;;;;56.40;2.90;;;;;;;;;;5054176;28;20455;-73
2023/10/23 06:58:51;;;;;;;56.40;2.90;;;;;;;;;;5053667;28;20543;-73
2023/10/23 07:01:18;;;;;;;56.40;2.60;;;;;;;;;;5053737;28;20463;-73
2023/10/23 07:03:45;;;;;;;56.47;2.80;;;;;;;;;;5053551;28;20484;-73
2023/10/23 07:06:13;;;;;;;56.40;2.40;;;;;;;;;;5053732;28;20448;-74
2023/10/23 07:08:40;;;;;;;56.53;3.23;;;;;;;;;;5053448;28;20457;-73
2023/10/23 07:11:14;;;;;;;56.10;2.50;;;;;;;;;;5053692;28;20451;-73
2023/10/23 07:13:41;;;;;;;56.23;2.70;;;;;;;;;;5053660;28;20446;-73
2023/10/23 07:16:09;;;;;;;56.13;2.50;;;;;;;;;;5053039;28;20878;-73
2023/10/23 07:18:36;;;;;;;56.10;2.37;;;;;;;;;;5053460;28;20566;-70
2023/10/23 07:21:03;;;;;;;56.30;2.70;;;;;;;;;;5053393;28;20451;-73
2023/10/23 07:23:30;;;;;;;55.87;2.30;;;;;;;;;;5053384;28;20498;-73
2023/10/23 07:26:01;;;;;;;58.20;2.77;;;;;;;;;;5052206;28;20460;-73
2023/10/23 07:28:30;;;;;;;56.20;2.67;;;;;;;;;;5053434;28;20440;-73
2023/10/23 07:30:57;;;;;;;56.07;2.40;;;;;;;;;;5053169;28;20477;-73
2023/10/23 07:33:24;;;;;;;56.33;2.50;;;;;;;;;;5052964;28;20454;-73
2023/10/23 07:36:00;;;;;;;56.40;2.90;;;;;;;;;;5053531;28;20957;-73
2023/10/23 07:38:27;;;;;;;56.60;2.87;;;;;;;;;;5053691;28;20448;-73
2023/10/23 07:40:54;;;;;;;57.07;3.50;;;;;;;;;;5052919;28;20546;-73
2023/10/23 07:43:20;;;;;;;55.83;2.33;;;;;;;;;;5053211;28;20489;-73
2023/10/23 07:45:48;;;;;;;56.37;2.77;;;;;;;;;;5052857;28;20452;-73
2023/10/23 07:48:16;;;;;;;55.87;2.30;;;;;;;;;;5052860;28;20961;-71
2023/10/23 07:50:44;;;;;;;56.17;2.77;;;;;;;;;;5052668;28;20968;-71
2023/10/23 07:53:11;;;;;;;55.93;2.40;;;;;;;;;;5052926;28;20817;-72
2023/10/23 07:55:38;;;;;;;56.10;2.57;;;;;;;;;;5052770;28;20448;-71
2023/10/23 07:58:05;;;;;;;55.90;2.20;;;;;;;;;;5052861;28;20455;-71
2023/10/23 08:00:32;;;;;;;55.73;2.50;;;;;;;;;;5052443;28;20472;-71
2023/10/23 08:03:01;;;;;;;56.87;2.30;;;;;;;;;;5052530;28;20492;-71
2023/10/23 08:05:28;;;;;;;55.67;2.30;;;;;;;;;;5052461;28;20464;-71
2023/10/23 08:07:55;;;;;;;56.20;2.47;;;;;;;;;;5052608;28;20555;-72
2023/10/23 08:10:22;;;;;;;55.97;2.30;;;;;;;;;;5052351;28;20984;-71
2023/10/23 08:12:49;;;;;;;56.07;2.50;;;;;;;;;;5052523;28;20458;-71
2023/10/23 08:15:17;;;;;;;56.40;2.30;;;;;;;;;;5052659;28;20444;-71
2023/10/23 08:17:44;;;;;;;56.07;2.00;;;;;;;;;;5052499;28;20458;-71
2023/10/23 08:20:13;;;;;;;56.57;2.20;;;;;;;;;;5052262;28;20505;-71
2023/10/23 08:22:40;;;;;;;56.40;2.30;;;;;;;;;;5052145;28;20565;-71
2023/10/23 08:25:08;;;;;;;56.30;2.33;;;;;;;;;;5052025;28;20460;-71
2023/10/23 08:27:35;;;;;;;56.10;2.40;;;;;;;;;;5051083;28;20525;-72
2023/10/23 08:30:02;;;;;;;56.30;2.20;;;;;;;;;;5052144;28;20555;-71
2023/10/23 08:32:29;;;;;;;56.73;2.57;;;;;;;;;;5051968;28;20510;-71
2023/10/23 08:34:56;;;;;;;56.13;2.13;;;;;;;;;;5051958;28;20444;-71
2023/10/23 08:37:25;;;;;;;55.93;2.27;;;;;;;;;;5052169;28;20449;-72
2023/10/23 08:39:52;;;;;;;56.97;3.20;;;;;;;;;;5051743;28;20472;-70
2023/10/23 08:42:19;;;;;;;55.97;2.30;;;;;;;;;;5051829;28;20541;-70
2023/10/23 08:44:47;;;;;;;56.07;2.00;;;;;;;;;;5051811;28;20478;-70
2023/10/23 08:47:14;;;;;;;55.60;2.33;;;;;;;;;;5051898;28;20461;-72
2023/10/23 08:49:41;;;;;;;55.63;2.10;;;;;;;;;;5051586;28;20972;-71
2023/10/23 08:52:09;;;;;;;55.73;2.00;;;;;;;;;;5051808;28;20441;-71
2023/10/23 08:54:39;;;;;;;55.77;2.30;;;;;;;;;;5051558;28;20492;-71
2023/10/23 08:57:07;;;;;;;57.07;3.77;;;;;;;;;;5051640;28;20992;-71
2023/10/23 08:59:34;;;;;;;55.93;1.97;;;;;;;;;;5051697;28;20464;-72
2023/10/23 09:02:01;;;;;;;56.23;2.33;;;;;;;;;;5051433;28;20457;-72
2023/10/23 09:04:28;;;;;;;56.13;2.37;;;;;;;;;;5051433;28;20495;-72
2023/10/23 09:06:58;;;;;;;68.03;3.17;;;;;;;;;;5051471;28;20458;-72
2023/10/23 09:09:26;;;;;;;56.67;2.50;;;;;;;;;;5051394;28;20761;-72
2023/10/23 09:11:55;;;;;;;56.50;2.90;;;;;;;;;;5051517;28;20444;-72
2023/10/23 09:14:26;;;;;;;58.00;2.77;;;;;;;;;;5045345;28;20456;-72
2023/10/23 09:16:53;;;;;;;55.97;2.20;;;;;;;;;;5049339;28;20450;-72
2023/10/23 09:19:27;;;;;;;56.07;2.10;;;;;;;;;;5050907;28;20468;-72
2023/10/23 09:21:55;;;;;;;56.60;2.57;;;;;;;;;;5050643;28;20815;-72
2023/10/23 09:24:22;;;;;;;55.90;2.10;;;;;;;;;;5051023;28;20488;-72
2023/10/23 09:26:50;;;;;;;56.23;2.23;;;;;;;;;;5047338;28;20507;-72
2023/10/23 09:29:21;;;;;;;55.93;2.20;;;;;;;;;;5051068;28;20478;-72
2023/10/23 09:31:49;;;;;;;56.20;2.47;;;;;;;;;;5050927;28;20965;-72
2023/10/23 09:34:16;;;;;;;56.10;2.23;;;;;;;;;;5050889;28;20468;-72
2023/10/23 09:36:43;;;;;;;56.07;2.10;;;;;;;;;;5051176;28;20462;-72
2023/10/23 09:39:10;;;;;;;56.00;2.20;;;;;;;;;;5050988;28;20464;-72
2023/10/23 09:41:38;;;;;;;56.30;2.17;;;;;;;;;;5050866;28;20446;-72
2023/10/23 09:44:06;;;;;;;56.43;2.20;;;;;;;;;;5050682;28;20486;-72
2023/10/23 09:46:35;;;;;;;56.13;2.07;;;;;;;;;;5048393;28;20848;-72
2023/10/23 09:49:03;;;;;;;55.97;2.30;;;;;;;;;;5050016;28;20479;-72
2023/10/23 09:51:32;;;;;;;56.30;2.40;;;;;;;;;;5049826;28;20865;-72
2023/10/23 09:53:59;;;;;;;56.13;2.20;;;;;;;;;;5049942;28;20455;-72
2023/10/23 09:56:30;;;;;;;56.20;2.27;;;;;;;;;;5050696;28;20444;-73
2023/10/23 09:58:59;;;;;;;56.17;2.17;;;;;;;;;;5050497;28;20471;-72
2023/10/23 10:01:29;;;;;;;56.20;2.03;;;;;;;;;;5050246;28;20918;-72
2023/10/23 10:03:58;;;;;;;56.30;2.60;;;;;;;;;;5050577;28;20489;-72
2023/10/23 10:06:26;;;;;;;56.17;2.03;;;;;;;;;;5050479;28;20955;-72
2023/10/23 10:08:55;;;;;;;55.97;2.20;;;;;;;;;;5050482;28;20465;-72
2023/10/23 10:11:23;;;;;;;56.13;2.20;;;;;;;;;;5050522;28;21004;-72
2023/10/23 10:13:50;;;;;;;56.10;2.10;;;;;;;;;;5050276;28;20453;-72
2023/10/23 10:16:17;;;;;;;56.10;2.10;;;;;;;;;;5050364;28;20460;-73
2023/10/23 10:18:44;;;;;;;56.20;2.30;;;;;;;;;;5049977;28;20454;-72
2023/10/23 10:21:14;;;;;;;56.50;2.47;;;;;;;;;;5049831;28;20829;-71
2023/10/23 10:23:41;;;;;;;56.10;2.20;;;;;;;;;;5050148;28;20483;-71
2023/10/23 10:26:08;;;;;;;56.07;2.50;;;;;;;;;;5050387;28;20455;-72
2023/10/23 10:28:39;;;;;;;56.70;2.63;;;;;;;;;;5050214;28;20444;-72
2023/10/23 10:31:06;;;;;;;56.60;2.57;;;;;;;;;;5043086;28;20502;-72
2023/10/23 10:33:33;;;;;;;56.20;2.10;;;;;;;;;;5050259;28;20444;-72
2023/10/23 10:36:01;;;;;;;56.10;2.17;;;;;;;;;;5050334;28;20445;-72
2023/10/23 10:38:30;;;;;;;57.20;2.93;;;;;;;;;;5050394;28;20472;-72
2023/10/23 10:40:58;;;;;;;56.23;2.77;;;;;;;;;;5050053;28;20464;-72
2023/10/23 10:43:26;;;;;;;56.13;2.27;;;;;;;;;;5049894;28;20586;-73
2023/10/23 10:45:53;;;;;;;56.90;2.43;;;;;;;;;;5046325;28;20459;-72
2023/10/23 10:48:20;;;;;;;57.37;2.90;;;;;;;;;;5050528;28;20446;-72
2023/10/23 10:50:48;;;;;;;55.93;2.20;;;;;;;;;;5051297;28;20467;-72
2023/10/23 10:53:15;;;;;;;56.50;2.60;;;;;;;;;;5054022;28;20882;-72
2023/10/23 10:55:46;;;;;;;56.30;2.23;;;;;;;;;;5053801;28;20936;-72
2023/10/23 10:58:13;;;;;;;57.70;2.90;;;;;;;;;;5054273;28;20472;-72
2023/10/23 11:00:40;;;;;;;56.07;2.40;;;;;;;;;;5053841;28;20491;-72
2023/10/23 11:03:09;;;;;;;56.07;2.13;;;;;;;;;;5053822;28;20445;-73
2023/10/23 11:05:38;;;;;;;56.20;2.40;;;;;;;;;;5053833;28;20440;-73
2023/10/23 11:08:05;;;;;;;56.03;2.40;;;;;;;;;;5053656;28;20450;-73
2023/10/23 11:10:32;;;;;;;56.40;2.07;;;;;;;;;;5053796;28;20456;-73
2023/10/23 11:13:01;;;;;;;56.67;2.13;;;;;;;;;;5053705;28;20451;-72
2023/10/23 11:15:28;;;;;;;56.70;2.63;;;;;;;;;;5053564;28;20448;-73
2023/10/23 11:17:55;;;;;;;56.07;2.07;;;;;;;;;;5053426;28;20932;-72
2023/10/23 11:20:22;;;;;;;56.03;2.17;;;;;;;;;;5053507;28;20466;-73
2023/10/23 11:22:49;;;;;;;56.00;1.90;;;;;;;;;;5053371;28;20464;-72
2023/10/23 11:25:17;;;;;;;56.07;2.50;;;;;;;;;;5053133;28;20490;-72
2023/10/23 11:27:46;;;;;;;56.00;2.17;;;;;;;;;;5053560;28;20547;-72
2023/10/23 11:30:14;;;;;;;56.50;2.67;;;;;;;;;;5053389;28;20468;-73
2023/10/23 11:32:44;;;;;;;56.23;2.40;;;;;;;;;;5053471;28;20451;-72
2023/10/23 11:35:11;;;;;;;56.10;2.40;;;;;;;;;;5053078;28;20442;-73
2023/10/23 11:37:39;;;;;;;57.43;2.67;;;;;;;;;;5053175;28;20446;-73
2023/10/23 11:40:07;;;;;;;56.10;2.30;;;;;;;;;;5053107;28;20831;-73
2023/10/23 11:42:42;;;;;;;57.00;3.17;;;;;;;;;;5053229;28;21007;-72
2023/10/23 11:45:11;;;;;;;56.07;2.30;;;;;;;;;;5044959;28;20860;-72
2023/10/23 11:47:39;;;;;;;56.70;2.80;;;;;;;;;;5053040;28;20454;-72
2023/10/23 11:50:10;;;;;;;56.03;2.13;;;;;;;;;;5052921;28;20465;-72
2023/10/23 11:52:37;;;;;;;56.07;2.13;;;;;;;;;;5053110;28;20446;-72
2023/10/23 11:55:06;;;;;;;56.00;2.10;;;;;;;;;;5052669;28;20460;-73
2023/10/23 11:57:33;;;;;;;56.60;2.40;;;;;;;;;;5052913;28;20817;-72
2023/10/23 12:00:06;;;;;;;56.20;2.30;;;;;;;;;;5052589;28;20468;-73
2023/10/23 12:02:33;;;;;;;55.93;2.50;;;;;;;;;;5052551;28;20511;-73
2023/10/23 12:05:02;;;;;;;57.87;3.07;;;;;;;;;;5052347;28;20486;-72
2023/10/23 12:07:29;;;;;;;56.93;2.90;;;;;;;;;;5053006;28;20501;-73
2023/10/23 12:09:56;;;;;;;56.40;2.40;;;;;;;;;;5052556;28;20472;-72
2023/10/23 12:12:23;;;;;;;56.50;2.80;;;;;;;;;;5052494;28;20445;-73
2023/10/23 12:14:50;;;;;;;56.60;2.23;;;;;;;;;;5052234;28;20444;-72
2023/10/23 12:17:17;;;;;;;55.97;2.20;;;;;;;;;;5052788;28;20454;-73
2023/10/23 12:19:45;;;;;;;56.23;2.63;;;;;;;;;;5052525;28;20477;-72
2023/10/23 12:22:13;;;;;;;56.40;2.33;;;;;;;;;;5052507;28;20440;-72
2023/10/23 12:24:40;;;;;;;56.77;2.60;;;;;;;;;;5052108;28;20492;-72
2023/10/23 12:27:07;;;;;;;56.07;2.10;;;;;;;;;;5052205;28;20453;-72
2023/10/23 12:29:34;;;;;;;56.40;2.40;;;;;;;;;;5052059;28;20913;-72
2023/10/23 12:32:03;;;;;;;57.20;3.03;;;;;;;;;;5052282;28;20824;-73
2023/10/23 12:34:30;;;;;;;56.43;2.40;;;;;;;;;;5052053;28;20499;-71
2023/10/23 12:36:58;;;;;;;58.80;2.57;;;;;;;;;;5052035;28;20450;-73
2023/10/23 12:39:26;;;;;;;56.30;2.30;;;;;;;;;;5049399;28;20892;-73
2023/10/23 12:41:53;;;;;;;56.23;2.47;;;;;;;;;;5049992;28;20880;-73
2023/10/23 12:44:20;;;;;;;56.60;2.57;;;;;;;;;;5051562;28;20521;-72
2023/10/23 12:46:47;;;;;;;56.10;2.23;;;;;;;;;;5048906;28;20450;-72
2023/10/23 12:49:14;;;;;;;56.00;2.33;;;;;;;;;;5051700;28;20464;-72
2023/10/23 12:51:41;;;;;;;56.17;2.17;;;;;;;;;;5051868;28;20448;-72
2023/10/23 12:54:09;;;;;;;56.00;2.00;;;;;;;;;;5051134;28;20447;-73
2023/10/23 12:56:37;;;;;;;55.77;2.30;;;;;;;;;;5040850;28;20456;-72
2023/10/23 12:59:05;;;;;;;56.17;2.23;;;;;;;;;;5034095;28;20843;-73
2023/10/23 13:01:32;;;;;;;56.47;2.53;;;;;;;;;;5038020;28;20579;-73
2023/10/23 13:03:59;;;;;;;56.27;2.30;;;;;;;;;;5038678;28;20486;-72
2023/10/23 13:06:27;;;;;;;56.13;2.43;;;;;;;;;;5051047;28;20558;-72
2023/10/23 13:08:54;;;;;;;56.63;2.70;;;;;;;;;;5044206;28;20476;-73
2023/10/23 13:11:22;;;;;;;56.00;2.60;;;;;;;;;;5051475;28;20458;-73
2023/10/23 13:13:50;;;;;;;56.80;2.87;;;;;;;;;;5050555;28;20469;-73
2023/10/23 13:16:17;;;;;;;55.67;1.90;;;;;;;;;;5051394;28;20448;-73
2023/10/23 13:18:44;;;;;;;56.20;2.53;;;;;;;;;;5051358;28;20461;-73
2023/10/23 13:21:11;;;;;;;56.67;2.60;;;;;;;;;;5051152;28;20455;-73
2023/10/23 13:23:38;;;;;;;56.00;2.20;;;;;;;;;;5050975;28;20452;-73
2023/10/23 13:26:06;;;;;;;56.27;2.17;;;;;;;;;;5043340;28;20457;-73
2023/10/23 13:28:33;;;;;;;56.17;2.50;;;;;;;;;;5050633;28;20961;-73
2023/10/23 13:31:02;;;;;;;55.90;2.27;;;;;;;;;;5050332;28;20453;-73
2023/10/23 13:33:29;;;;;;;56.93;2.50;;;;;;;;;;5051080;28;20448;-73
2023/10/23 13:35:56;;;;;;;55.93;2.43;;;;;;;;;;5050965;28;20832;-73
2023/10/23 13:38:23;;;;;;;56.37;2.37;;;;;;;;;;5050836;28;20967;-73
2023/10/23 13:40:51;;;;;;;57.13;2.97;;;;;;;;;;5050849;28;20562;-73
2023/10/23 13:43:18;;;;;;;56.30;2.67;;;;;;;;;;5050937;28;20498;-73
2023/10/23 13:45:46;;;;;;;55.97;2.30;;;;;;;;;;5050904;28;20488;-73
2023/10/23 13:48:14;;;;;;;56.30;2.40;;;;;;;;;;5050934;28;20903;-73
2023/10/23 13:50:41;;;;;;;56.40;2.57;;;;;;;;;;5050626;28;20469;-72
2023/10/23 13:53:08;;;;;;;57.27;3.00;;;;;;;;;;5050995;28;20893;-73
2023/10/23 13:55:35;;;;;;;56.47;2.37;;;;;;;;;;5051165;28;20449;-74
2023/10/23 13:58:02;;;;;;;56.07;2.23;;;;;;;;;;5051033;28;20452;-72
2023/10/23 14:00:30;;;;;;;58.23;2.90;;;;;;;;;;5050643;28;20921;-72
2023/10/23 14:02:57;;;;;;;56.17;2.80;;;;;;;;;;5050760;28;20856;-72
2023/10/23 14:05:25;;;;;;;56.37;3.00;;;;;;;;;;5050862;28;20491;-72
2023/10/23 14:07:52;;;;;;;56.37;3.07;;;;;;;;;;5050769;28;20454;-72
2023/10/23 14:10:19;;;;;;;57.00;3.13;;;;;;;;;;5050638;28;20472;-72
2023/10/23 14:12:46;;;;;;;56.13;2.60;;;;;;;;;;5050893;28;20453;-72
2023/10/23 14:15:14;;;;;;;57.43;2.70;;;;;;;;;;5050578;28;20448;-73
2023/10/23 14:17:41;;;;;;;56.80;2.50;;;;;;;;;;5050618;28;20819;-72
2023/10/23 14:20:08;;;;;;;56.77;3.10;;;;;;;;;;5050590;28;20473;-73
2023/10/23 14:22:38;;;;;;;57.87;3.83;;;;;;;;;;5050791;28;20455;-72
2023/10/23 14:25:06;;;;;;;56.37;2.83;;;;;;;;;;5050807;28;20489;-72
2023/10/23 14:27:33;;;;;;;56.83;2.70;;;;;;;;;;5054785;28;20441;-72
2023/10/23 14:30:00;;;;;;;56.17;2.47;;;;;;;;;;5054529;28;20560;-72
2023/10/23 14:32:27;;;;;;;57.70;2.90;;;;;;;;;;5054434;28;20448;-73